Palmyra, TN (37142)

10:43 AM CST on February 01, 2015 (GMT -0600)
Round Pond | Change Station
CLOSE
Current Station
Personal Weather Station
Location: Clarksville, TN
Elevation: 531 ft
Nearby Weather Stations
Active Advisory: Special Statement Active Notice: Public Information Statement

Elev 531 ft 36.45 °N, 87.41 °W | Updated 0 second ago

Rain
Rain
41.4 °F
Feels Like 37 °F
N
6.9
Wind Variable Wind from SSW
Gusts 6.9 mph

Today
High -- | Low -- °F
--% Chance of Precip.
Yesterday
High -- | Low -- °F
Precip. -- in
6:51 AM 5:16 PM
Waxing Gibbous, 95% visible
Pressure 29.81 in
Visibility 6.0 miles
Clouds Scattered Clouds 300 ft
Mostly Cloudy 1400 ft
Mostly Cloudy 2000 ft
Overcast 2700 ft
Windchill 37 °F
Dew Point 37 °F
Humidity 83%
Rainfall 0.17 in
Snow Depth Not available.
UV 1 out of 12
Pollen .80 out of 12
Air Quality Not available.
Flu Activity Not available.
SPECI KHOP 011635Z AUTO 17012G19KT 6SM UP BR SCT003 BKN014 BKN020 OVC027 07/06 A2981 RMK AO2 CIG 014V020 BKN014 V SCT

More Conditions Fewer Conditions

Pressure 29.81 in
Visibility 6.0 miles
Clouds Scattered Clouds 300 ft
Mostly Cloudy 1400 ft
Mostly Cloudy 2000 ft
Overcast 2700 ft
Windchill 37 °F
Dew Point 37 °F
Humidity 83%
Rainfall 0.17 in
Snow Depth Not available.
UV 1 out of 12
Pollen .80 out of 12
Air Quality Not available.
Flu Activity Not available.
SPECI KHOP 011635Z AUTO 17012G19KT 6SM UP BR SCT003 BKN014 BKN020 OVC027 07/06 A2981 RMK AO2 CIG 014V020 BKN014 V SCT

More Conditions Fewer Conditions

10-Day Weather Forecast

Almanac

Astronomy

Feb. 01, 2015 Rise Set
Actual Time
Civil Twilight
Nautical Twilight
Astronomical Twilight
Moon
Length of Visible Light
Length of Day
Tomorrow will be .
, % of the Moon is Illuminated

Today's Extremes

State Highs State Lows

Community

WunderPhotos

Upload Photos

1,792,367 photos uploaded!

WunderBlogs® & News

Nearby

Air Quality

  Air Quality AQ Index Pollutant
Not available.

Snow Depth

Station Depth Elevation

Earthquake Activity

City Distance Mag. Time & Date
Minimum magnitude displayed is 2.5.

Coastal Water Temperatures

Place Temperature

Nearby Weather Stations